sensor_id;sensor_type;location;lat;lon;timestamp;P1;durP1;ratioP1;P2;durP2;ratioP2
11447;SDS011;43755;49.736;8.734;2023-02-28T00:00:15;3.17;;;2.70;;
11447;SDS011;43755;49.736;8.734;2023-02-28T00:02:17;3.40;;;2.95;;
11447;SDS011;43755;49.736;8.734;2023-02-28T00:04:19;2.85;;;2.60;;
11447;SDS011;43755;49.736;8.734;2023-02-28T00:06:20;3.40;;;2.97;;
11447;SDS011;43755;49.736;8.734;2023-02-28T00:08:21;3.17;;;2.97;;
11447;SDS011;43755;49.736;8.734;2023-02-28T00:10:23;3.25;;;2.95;;
11447;SDS011;43755;49.736;8.734;2023-02-28T00:12:27;6.78;;;2.97;;
11447;SDS011;43755;49.736;8.734;2023-02-28T00:14:29;5.90;;;3.05;;
11447;SDS011;43755;49.736;8.734;2023-02-28T00:16:31;3.55;;;2.85;;
11447;SDS011;43755;49.736;8.734;2023-02-28T00:18:32;3.28;;;2.90;;
11447;SDS011;43755;49.736;8.734;2023-02-28T00:20:34;3.20;;;2.90;;
11447;SDS011;43755;49.736;8.734;2023-02-28T00:22:36;3.35;;;3.03;;
11447;SDS011;43755;49.736;8.734;2023-02-28T00:24:38;3.55;;;3.25;;
11447;SDS011;43755;49.736;8.734;2023-02-28T00:26:39;3.08;;;2.83;;
11447;SDS011;43755;49.736;8.734;2023-02-28T00:28:42;3.42;;;3.13;;
11447;SDS011;43755;49.736;8.734;2023-02-28T00:30:43;3.88;;;2.90;;
11447;SDS011;43755;49.736;8.734;2023-02-28T00:32:45;3.38;;;2.95;;
11447;SDS011;43755;49.736;8.734;2023-02-28T00:34:47;3.90;;;3.13;;
11447;SDS011;43755;49.736;8.734;2023-02-28T00:36:48;3.28;;;2.97;;
11447;SDS011;43755;49.736;8.734;2023-02-28T00:38:49;4.35;;;3.22;;
11447;SDS011;43755;49.736;8.734;2023-02-28T00:40:51;3.40;;;3.00;;
11447;SDS011;43755;49.736;8.734;2023-02-28T00:42:52;3.72;;;3.10;;
11447;SDS011;43755;49.736;8.734;2023-02-28T00:44:55;3.45;;;3.15;;
11447;SDS011;43755;49.736;8.734;2023-02-28T00:46:56;3.47;;;3.17;;
11447;SDS011;43755;49.736;8.734;2023-02-28T00:48:58;5.13;;;3.10;;
11447;SDS011;43755;49.736;8.734;2023-02-28T00:51:00;3.25;;;2.97;;
11447;SDS011;43755;49.736;8.734;2023-02-28T00:53:01;3.53;;;3.22;;
11447;SDS011;43755;49.736;8.734;2023-02-28T00:55:03;3.97;;;3.13;;
11447;SDS011;43755;49.736;8.734;2023-02-28T00:57:05;3.50;;;3.10;;
11447;SDS011;43755;49.736;8.734;2023-02-28T00:59:06;3.22;;;2.90;;
11447;SDS011;43755;49.736;8.734;2023-02-28T01:01:09;3.50;;;3.17;;
11447;SDS011;43755;49.736;8.734;2023-02-28T01:03:10;3.50;;;3.20;;
11447;SDS011;43755;49.736;8.734;2023-02-28T01:05:12;4.10;;;3.05;;
11447;SDS011;43755;49.736;8.734;2023-02-28T01:07:14;3.83;;;2.97;;
11447;SDS011;43755;49.736;8.734;2023-02-28T01:09:15;3.33;;;3.00;;
11447;SDS011;43755;49.736;8.734;2023-02-28T01:11:17;3.50;;;3.20;;
11447;SDS011;43755;49.736;8.734;2023-02-28T01:13:19;4.03;;;3.10;;
11447;SDS011;43755;49.736;8.734;2023-02-28T01:15:23;3.55;;;3.25;;
11447;SDS011;43755;49.736;8.734;2023-02-28T01:17:25;3.80;;;3.00;;
11447;SDS011;43755;49.736;8.734;2023-02-28T01:19:27;3.53;;;3.22;;
11447;SDS011;43755;49.736;8.734;2023-02-28T01:21:28;3.50;;;3.20;;
11447;SDS011;43755;49.736;8.734;2023-02-28T01:23:30;3.70;;;3.35;;
11447;SDS011;43755;49.736;8.734;2023-02-28T01:25:33;4.68;;;3.50;;
11447;SDS011;43755;49.736;8.734;2023-02-28T01:27:35;3.78;;;3.38;;
11447;SDS011;43755;49.736;8.734;2023-02-28T01:29:36;4.65;;;3.55;;
11447;SDS011;43755;49.736;8.734;2023-02-28T01:31:38;3.63;;;3.33;;
11447;SDS011;43755;49.736;8.734;2023-02-28T01:33:41;3.20;;;3.00;;
11447;SDS011;43755;49.736;8.734;2023-02-28T01:35:42;3.58;;;3.28;;
11447;SDS011;43755;49.736;8.734;2023-02-28T01:37:43;3.83;;;3.42;;
11447;SDS011;43755;49.736;8.734;2023-02-28T01:39:45;3.80;;;3.40;;
11447;SDS011;43755;49.736;8.734;2023-02-28T01:41:46;3.78;;;3.45;;
11447;SDS011;43755;49.736;8.734;2023-02-28T01:43:58;3.65;;;3.25;;
11447;SDS011;43755;49.736;8.734;2023-02-28T01:46:05;4.55;;;3.45;;
11447;SDS011;43755;49.736;8.734;2023-02-28T01:48:07;4.72;;;3.45;;
11447;SDS011;43755;49.736;8.734;2023-02-28T01:50:12;3.97;;;3.53;;
11447;SDS011;43755;49.736;8.734;2023-02-28T01:52:17;4.10;;;3.70;;
11447;SDS011;43755;49.736;8.734;2023-02-28T01:54:22;3.95;;;3.50;;
11447;SDS011;43755;49.736;8.734;2023-02-28T01:56:27;3.63;;;3.30;;
11447;SDS011;43755;49.736;8.734;2023-02-28T01:58:31;5.05;;;3.40;;
11447;SDS011;43755;49.736;8.734;2023-02-28T02:00:32;4.25;;;3.30;;
11447;SDS011;43755;49.736;8.734;2023-02-28T02:02:34;3.83;;;3.50;;
11447;SDS011;43755;49.736;8.734;2023-02-28T02:04:39;3.92;;;3.40;;
11447;SDS011;43755;49.736;8.734;2023-02-28T02:06:48;4.07;;;3.17;;
11447;SDS011;43755;49.736;8.734;2023-02-28T02:08:49;4.15;;;3.72;;
11447;SDS011;43755;49.736;8.734;2023-02-28T02:10:52;4.00;;;3.45;;
11447;SDS011;43755;49.736;8.734;2023-02-28T02:13:05;3.50;;;3.20;;
11447;SDS011;43755;49.736;8.734;2023-02-28T02:15:20;3.97;;;3.58;;
11447;SDS011;43755;49.736;8.734;2023-02-28T02:17:30;3.53;;;3.22;;
11447;SDS011;43755;49.736;8.734;2023-02-28T02:19:44;3.65;;;3.40;;
11447;SDS011;43755;49.736;8.734;2023-02-28T02:22:14;4.05;;;3.65;;
11447;SDS011;43755;49.736;8.734;2023-02-28T02:24:48;4.75;;;3.67;;
11447;SDS011;43755;49.736;8.734;2023-02-28T02:27:16;4.05;;;3.65;;
11447;SDS011;43755;49.736;8.734;2023-02-28T02:29:35;4.07;;;3.78;;
11447;SDS011;43755;49.736;8.734;2023-02-28T02:31:51;3.85;;;3.55;;
11447;SDS011;43755;49.736;8.734;2023-02-28T02:34:22;5.85;;;3.72;;
11447;SDS011;43755;49.736;8.734;2023-02-28T02:36:28;6.78;;;3.70;;
11447;SDS011;43755;49.736;8.734;2023-02-28T02:38:34;4.13;;;3.58;;
11447;SDS011;43755;49.736;8.734;2023-02-28T02:40:45;3.78;;;3.35;;
11447;SDS011;43755;49.736;8.734;2023-02-28T02:42:53;4.13;;;3.72;;
11447;SDS011;43755;49.736;8.734;2023-02-28T02:44:59;4.15;;;3.60;;
11447;SDS011;43755;49.736;8.734;2023-02-28T02:47:06;3.78;;;3.42;;
11447;SDS011;43755;49.736;8.734;2023-02-28T02:49:13;5.80;;;3.80;;
11447;SDS011;43755;49.736;8.734;2023-02-28T02:51:21;5.00;;;3.80;;
11447;SDS011;43755;49.736;8.734;2023-02-28T02:53:25;4.28;;;3.63;;
11447;SDS011;43755;49.736;8.734;2023-02-28T02:55:31;4.22;;;3.83;;
11447;SDS011;43755;49.736;8.734;2023-02-28T02:57:36;3.70;;;3.40;;
11447;SDS011;43755;49.736;8.734;2023-02-28T02:59:44;3.80;;;3.50;;
11447;SDS011;43755;49.736;8.734;2023-02-28T03:01:46;5.10;;;3.88;;
11447;SDS011;43755;49.736;8.734;2023-02-28T03:03:51;3.83;;;3.53;;
11447;SDS011;43755;49.736;8.734;2023-02-28T03:05:52;4.60;;;3.30;;
11447;SDS011;43755;49.736;8.734;2023-02-28T03:07:55;5.68;;;3.80;;
11447;SDS011;43755;49.736;8.734;2023-02-28T03:09:57;5.03;;;3.80;;
11447;SDS011;43755;49.736;8.734;2023-02-28T03:11:58;3.70;;;3.40;;
11447;SDS011;43755;49.736;8.734;2023-02-28T03:14:07;3.72;;;3.42;;
11447;SDS011;43755;49.736;8.734;2023-02-28T03:18:36;3.90;;;3.60;;
11447;SDS011;43755;49.736;8.734;2023-02-28T03:20:46;3.90;;;3.60;;
11447;SDS011;43755;49.736;8.734;2023-02-28T03:22:52;3.85;;;3.55;;
11447;SDS011;43755;49.736;8.734;2023-02-28T03:25:05;4.15;;;3.70;;
11447;SDS011;43755;49.736;8.734;2023-02-28T03:27:09;4.00;;;3.60;;
11447;SDS011;43755;49.736;8.734;2023-02-28T03:29:18;4.47;;;3.83;;
11447;SDS011;43755;49.736;8.734;2023-02-28T03:31:26;4.25;;;3.80;;
11447;SDS011;43755;49.736;8.734;2023-02-28T03:33:32;4.10;;;3.80;;
11447;SDS011;43755;49.736;8.734;2023-02-28T03:35:40;4.15;;;3.78;;
11447;SDS011;43755;49.736;8.734;2023-02-28T03:37:45;3.97;;;3.67;;
11447;SDS011;43755;49.736;8.734;2023-02-28T03:39:51;4.43;;;4.03;;
11447;SDS011;43755;49.736;8.734;2023-02-28T03:41:58;5.53;;;4.15;;
11447;SDS011;43755;49.736;8.734;2023-02-28T03:44:03;7.88;;;3.47;;
11447;SDS011;43755;49.736;8.734;2023-02-28T03:46:09;4.22;;;3.83;;
11447;SDS011;43755;49.736;8.734;2023-02-28T03:48:13;4.15;;;3.75;;
11447;SDS011;43755;49.736;8.734;2023-02-28T03:50:19;4.63;;;4.10;;
11447;SDS011;43755;49.736;8.734;2023-02-28T03:52:23;4.63;;;4.18;;
11447;SDS011;43755;49.736;8.734;2023-02-28T03:54:29;4.28;;;3.88;;
11447;SDS011;43755;49.736;8.734;2023-02-28T03:56:38;4.65;;;4.07;;
11447;SDS011;43755;49.736;8.734;2023-02-28T03:58:45;4.55;;;4.15;;
11447;SDS011;43755;49.736;8.734;2023-02-28T04:00:51;4.30;;;3.67;;
11447;SDS011;43755;49.736;8.734;2023-02-28T04:02:56;4.72;;;3.60;;
11447;SDS011;43755;49.736;8.734;2023-02-28T04:04:59;4.00;;;3.70;;
11447;SDS011;43755;49.736;8.734;2023-02-28T04:07:01;4.00;;;3.65;;
11447;SDS011;43755;49.736;8.734;2023-02-28T04:09:04;4.55;;;4.15;;
11447;SDS011;43755;49.736;8.734;2023-02-28T04:11:11;4.43;;;4.03;;
11447;SDS011;43755;49.736;8.734;2023-02-28T04:13:20;4.00;;;3.67;;
11447;SDS011;43755;49.736;8.734;2023-02-28T04:15:22;4.05;;;3.65;;
11447;SDS011;43755;49.736;8.734;2023-02-28T04:17:24;4.15;;;3.70;;
11447;SDS011;43755;49.736;8.734;2023-02-28T04:19:26;6.15;;;3.90;;
11447;SDS011;43755;49.736;8.734;2023-02-28T04:21:27;3.90;;;3.60;;
11447;SDS011;43755;49.736;8.734;2023-02-28T04:23:29;6.25;;;4.57;;
11447;SDS011;43755;49.736;8.734;2023-02-28T04:25:31;5.15;;;3.95;;
11447;SDS011;43755;49.736;8.734;2023-02-28T04:27:32;4.25;;;3.85;;
11447;SDS011;43755;49.736;8.734;2023-02-28T04:29:35;5.88;;;4.38;;
11447;SDS011;43755;49.736;8.734;2023-02-28T04:31:37;5.35;;;4.15;;
11447;SDS011;43755;49.736;8.734;2023-02-28T04:33:38;4.78;;;4.20;;
11447;SDS011;43755;49.736;8.734;2023-02-28T04:35:40;4.63;;;4.22;;
11447;SDS011;43755;49.736;8.734;2023-02-28T04:37:41;4.63;;;4.10;;
11447;SDS011;43755;49.736;8.734;2023-02-28T04:39:43;4.78;;;4.38;;
11447;SDS011;43755;49.736;8.734;2023-02-28T04:41:44;4.47;;;4.07;;
11447;SDS011;43755;49.736;8.734;2023-02-28T04:43:46;4.88;;;4.38;;
11447;SDS011;43755;49.736;8.734;2023-02-28T04:45:49;4.65;;;4.22;;
11447;SDS011;43755;49.736;8.734;2023-02-28T04:47:50;5.95;;;4.45;;
11447;SDS011;43755;49.736;8.734;2023-02-28T04:49:53;5.15;;;4.35;;
11447;SDS011;43755;49.736;8.734;2023-02-28T04:51:54;5.10;;;4.20;;
11447;SDS011;43755;49.736;8.734;2023-02-28T04:53:56;5.13;;;4.03;;
11447;SDS011;43755;49.736;8.734;2023-02-28T04:55:58;4.80;;;4.30;;
11447;SDS011;43755;49.736;8.734;2023-02-28T04:57:59;6.55;;;4.47;;
11447;SDS011;43755;49.736;8.734;2023-02-28T05:00:01;6.03;;;4.35;;
11447;SDS011;43755;49.736;8.734;2023-02-28T05:02:07;4.47;;;4.03;;
11447;SDS011;43755;49.736;8.734;2023-02-28T05:04:09;4.60;;;4.20;;
11447;SDS011;43755;49.736;8.734;2023-02-28T05:06:11;5.65;;;4.28;;
11447;SDS011;43755;49.736;8.734;2023-02-28T05:08:13;4.47;;;4.07;;
11447;SDS011;43755;49.736;8.734;2023-02-28T05:10:14;4.72;;;4.30;;
11447;SDS011;43755;49.736;8.734;2023-02-28T05:12:16;4.88;;;4.43;;
11447;SDS011;43755;49.736;8.734;2023-02-28T05:14:17;4.57;;;4.18;;
11447;SDS011;43755;49.736;8.734;2023-02-28T05:16:19;4.43;;;4.00;;
11447;SDS011;43755;49.736;8.734;2023-02-28T05:18:22;4.95;;;4.45;;
11447;SDS011;43755;49.736;8.734;2023-02-28T05:20:23;4.45;;;4.05;;
11447;SDS011;43755;49.736;8.734;2023-02-28T05:22:25;8.35;;;4.40;;
11447;SDS011;43755;49.736;8.734;2023-02-28T05:24:26;4.53;;;4.10;;
11447;SDS011;43755;49.736;8.734;2023-02-28T05:26:28;4.78;;;4.32;;
11447;SDS011;43755;49.736;8.734;2023-02-28T05:28:30;5.18;;;4.68;;
11447;SDS011;43755;49.736;8.734;2023-02-28T05:30:32;4.70;;;4.30;;
11447;SDS011;43755;49.736;8.734;2023-02-28T05:32:33;5.10;;;4.35;;
11447;SDS011;43755;49.736;8.734;2023-02-28T05:34:37;4.65;;;4.25;;
11447;SDS011;43755;49.736;8.734;2023-02-28T05:36:38;4.68;;;4.28;;
11447;SDS011;43755;49.736;8.734;2023-02-28T05:38:40;4.65;;;4.25;;
11447;SDS011;43755;49.736;8.734;2023-02-28T05:40:41;5.18;;;4.03;;
11447;SDS011;43755;49.736;8.734;2023-02-28T05:42:43;6.18;;;4.50;;
11447;SDS011;43755;49.736;8.734;2023-02-28T05:44:44;5.88;;;4.57;;
11447;SDS011;43755;49.736;8.734;2023-02-28T05:46:46;5.05;;;4.55;;
11447;SDS011;43755;49.736;8.734;2023-02-28T05:48:47;5.20;;;4.45;;
11447;SDS011;43755;49.736;8.734;2023-02-28T05:50:51;4.93;;;4.47;;
11447;SDS011;43755;49.736;8.734;2023-02-28T05:52:52;5.18;;;4.60;;
11447;SDS011;43755;49.736;8.734;2023-02-28T05:54:54;6.53;;;4.40;;
11447;SDS011;43755;49.736;8.734;2023-02-28T05:56:55;5.57;;;4.72;;
11447;SDS011;43755;49.736;8.734;2023-02-28T05:58:57;5.03;;;4.53;;
11447;SDS011;43755;49.736;8.734;2023-02-28T06:00:59;6.20;;;4.60;;
11447;SDS011;43755;49.736;8.734;2023-02-28T06:03:01;5.90;;;5.03;;
11447;SDS011;43755;49.736;8.734;2023-02-28T06:05:03;5.43;;;4.43;;
11447;SDS011;43755;49.736;8.734;2023-02-28T06:07:06;5.18;;;4.72;;
11447;SDS011;43755;49.736;8.734;2023-02-28T06:09:08;5.00;;;4.53;;
11447;SDS011;43755;49.736;8.734;2023-02-28T06:11:09;5.13;;;4.63;;
11447;SDS011;43755;49.736;8.734;2023-02-28T06:13:11;6.45;;;4.45;;
11447;SDS011;43755;49.736;8.734;2023-02-28T06:15:13;5.13;;;4.63;;
11447;SDS011;43755;49.736;8.734;2023-02-28T06:17:15;4.90;;;4.40;;
11447;SDS011;43755;49.736;8.734;2023-02-28T06:19:16;4.78;;;4.38;;
11447;SDS011;43755;49.736;8.734;2023-02-28T06:21:18;4.78;;;4.35;;
11447;SDS011;43755;49.736;8.734;2023-02-28T06:23:21;5.75;;;4.57;;
11447;SDS011;43755;49.736;8.734;2023-02-28T06:25:22;4.63;;;4.22;;
11447;SDS011;43755;49.736;8.734;2023-02-28T06:27:24;4.85;;;4.38;;
11447;SDS011;43755;49.736;8.734;2023-02-28T06:29:25;4.55;;;4.15;;
11447;SDS011;43755;49.736;8.734;2023-02-28T06:31:26;7.05;;;5.03;;
11447;SDS011;43755;49.736;8.734;2023-02-28T06:33:28;6.03;;;4.22;;
11447;SDS011;43755;49.736;8.734;2023-02-28T06:35:30;4.40;;;4.00;;
11447;SDS011;43755;49.736;8.734;2023-02-28T06:37:32;4.65;;;4.25;;
11447;SDS011;43755;49.736;8.734;2023-02-28T06:39:34;4.75;;;4.35;;
11447;SDS011;43755;49.736;8.734;2023-02-28T06:41:36;4.65;;;4.25;;
11447;SDS011;43755;49.736;8.734;2023-02-28T06:43:39;4.45;;;4.05;;
11447;SDS011;43755;49.736;8.734;2023-02-28T06:45:42;4.95;;;4.15;;
11447;SDS011;43755;49.736;8.734;2023-02-28T06:47:44;5.10;;;4.60;;
11447;SDS011;43755;49.736;8.734;2023-02-28T06:49:45;5.07;;;4.43;;
11447;SDS011;43755;49.736;8.734;2023-02-28T06:51:47;4.55;;;4.07;;
11447;SDS011;43755;49.736;8.734;2023-02-28T06:53:48;4.68;;;4.00;;
11447;SDS011;43755;49.736;8.734;2023-02-28T06:55:51;6.50;;;4.28;;
11447;SDS011;43755;49.736;8.734;2023-02-28T06:57:52;5.00;;;4.40;;
11447;SDS011;43755;49.736;8.734;2023-02-28T06:59:54;5.07;;;4.57;;
11447;SDS011;43755;49.736;8.734;2023-02-28T07:01:56;4.57;;;4.18;;
11447;SDS011;43755;49.736;8.734;2023-02-28T07:03:58;4.50;;;4.10;;
11447;SDS011;43755;49.736;8.734;2023-02-28T07:06:00;4.35;;;3.95;;
11447;SDS011;43755;49.736;8.734;2023-02-28T07:08:03;5.78;;;4.30;;
11447;SDS011;43755;49.736;8.734;2023-02-28T07:10:06;5.93;;;4.22;;
11447;SDS011;43755;49.736;8.734;2023-02-28T07:12:09;5.20;;;4.18;;
11447;SDS011;43755;49.736;8.734;2023-02-28T07:14:10;4.60;;;4.10;;
11447;SDS011;43755;49.736;8.734;2023-02-28T07:16:11;5.18;;;4.00;;
11447;SDS011;43755;49.736;8.734;2023-02-28T07:18:13;5.65;;;4.07;;
11447;SDS011;43755;49.736;8.734;2023-02-28T07:20:15;4.93;;;4.28;;
11447;SDS011;43755;49.736;8.734;2023-02-28T07:22:16;4.30;;;3.90;;
11447;SDS011;43755;49.736;8.734;2023-02-28T07:24:18;4.22;;;3.85;;
11447;SDS011;43755;49.736;8.734;2023-02-28T07:26:19;4.15;;;3.47;;
11447;SDS011;43755;49.736;8.734;2023-02-28T07:28:23;4.00;;;3.70;;
11447;SDS011;43755;49.736;8.734;2023-02-28T07:30:24;4.47;;;3.75;;
11447;SDS011;43755;49.736;8.734;2023-02-28T07:32:26;3.70;;;3.40;;
11447;SDS011;43755;49.736;8.734;2023-02-28T07:34:27;3.97;;;3.60;;
11447;SDS011;43755;49.736;8.734;2023-02-28T07:36:29;4.57;;;3.85;;
11447;SDS011;43755;49.736;8.734;2023-02-28T07:38:30;4.10;;;3.70;;
11447;SDS011;43755;49.736;8.734;2023-02-28T07:40:31;4.10;;;3.70;;
11447;SDS011;43755;49.736;8.734;2023-02-28T07:42:33;6.15;;;3.92;;
11447;SDS011;43755;49.736;8.734;2023-02-28T07:44:36;4.28;;;3.70;;
11447;SDS011;43755;49.736;8.734;2023-02-28T07:46:40;3.97;;;3.65;;
11447;SDS011;43755;49.736;8.734;2023-02-28T07:48:41;5.35;;;3.88;;
11447;SDS011;43755;49.736;8.734;2023-02-28T07:50:43;3.90;;;3.50;;
11447;SDS011;43755;49.736;8.734;2023-02-28T07:52:48;5.00;;;3.78;;
11447;SDS011;43755;49.736;8.734;2023-02-28T07:54:49;3.72;;;3.40;;
11447;SDS011;43755;49.736;8.734;2023-02-28T07:56:51;3.75;;;3.45;;
11447;SDS011;43755;49.736;8.734;2023-02-28T07:58:52;3.55;;;3.22;;
11447;SDS011;43755;49.736;8.734;2023-02-28T08:00:55;5.60;;;3.95;;
11447;SDS011;43755;49.736;8.734;2023-02-28T08:02:57;4.10;;;3.70;;
11447;SDS011;43755;49.736;8.734;2023-02-28T08:04:59;3.70;;;3.40;;
11447;SDS011;43755;49.736;8.734;2023-02-28T08:07:01;3.60;;;3.30;;
11447;SDS011;43755;49.736;8.734;2023-02-28T08:09:02;4.53;;;3.60;;
11447;SDS011;43755;49.736;8.734;2023-02-28T08:11:04;4.18;;;3.13;;
11447;SDS011;43755;49.736;8.734;2023-02-28T08:13:05;3.97;;;3.58;;
11447;SDS011;43755;49.736;8.734;2023-02-28T08:15:08;4.45;;;3.70;;
11447;SDS011;43755;49.736;8.734;2023-02-28T08:17:11;5.97;;;3.90;;
11447;SDS011;43755;49.736;8.734;2023-02-28T08:19:12;4.47;;;4.03;;
11447;SDS011;43755;49.736;8.734;2023-02-28T08:21:14;4.15;;;3.83;;
11447;SDS011;43755;49.736;8.734;2023-02-28T08:23:15;4.43;;;3.78;;
11447;SDS011;43755;49.736;8.734;2023-02-28T08:25:17;3.80;;;3.50;;
11447;SDS011;43755;49.736;8.734;2023-02-28T08:27:19;6.05;;;4.00;;
11447;SDS011;43755;49.736;8.734;2023-02-28T08:29:20;4.22;;;3.83;;
11447;SDS011;43755;49.736;8.734;2023-02-28T08:31:21;3.78;;;3.47;;
11447;SDS011;43755;49.736;8.734;2023-02-28T08:33:24;4.28;;;3.88;;
11447;SDS011;43755;49.736;8.734;2023-02-28T08:35:27;4.88;;;3.92;;
11447;SDS011;43755;49.736;8.734;2023-02-28T08:37:29;4.85;;;4.07;;
11447;SDS011;43755;49.736;8.734;2023-02-28T08:39:30;4.90;;;4.00;;
11447;SDS011;43755;49.736;8.734;2023-02-28T08:41:35;4.65;;;3.97;;
11447;SDS011;43755;49.736;8.734;2023-02-28T08:43:36;5.50;;;3.70;;
11447;SDS011;43755;49.736;8.734;2023-02-28T08:45:38;4.47;;;4.07;;
11447;SDS011;43755;49.736;8.734;2023-02-28T08:47:40;4.30;;;3.90;;
11447;SDS011;43755;49.736;8.734;2023-02-28T08:49:43;6.15;;;4.32;;
11447;SDS011;43755;49.736;8.734;2023-02-28T08:51:44;4.55;;;3.95;;
11447;SDS011;43755;49.736;8.734;2023-02-28T08:53:46;5.55;;;4.10;;
11447;SDS011;43755;49.736;8.734;2023-02-28T08:55:55;4.78;;;4.30;;
11447;SDS011;43755;49.736;8.734;2023-02-28T08:57:57;4.35;;;4.00;;
11447;SDS011;43755;49.736;8.734;2023-02-28T08:59:59;4.57;;;4.18;;
11447;SDS011;43755;49.736;8.734;2023-02-28T09:02:01;5.53;;;4.05;;
11447;SDS011;43755;49.736;8.734;2023-02-28T09:04:03;6.45;;;4.57;;
11447;SDS011;43755;49.736;8.734;2023-02-28T09:06:08;10.15;;;5.05;;
11447;SDS011;43755;49.736;8.734;2023-02-28T09:08:11;18.58;;;9.95;;
11447;SDS011;43755;49.736;8.734;2023-02-28T09:10:12;6.22;;;4.47;;
11447;SDS011;43755;49.736;8.734;2023-02-28T09:12:13;6.20;;;4.70;;
11447;SDS011;43755;49.736;8.734;2023-02-28T09:14:15;6.57;;;4.90;;
11447;SDS011;43755;49.736;8.734;2023-02-28T09:16:17;5.07;;;4.43;;
11447;SDS011;43755;49.736;8.734;2023-02-28T09:18:19;5.85;;;4.82;;
11447;SDS011;43755;49.736;8.734;2023-02-28T09:20:20;5.40;;;4.40;;
11447;SDS011;43755;49.736;8.734;2023-02-28T09:22:23;5.25;;;4.75;;
11447;SDS011;43755;49.736;8.734;2023-02-28T09:24:24;7.75;;;5.80;;
11447;SDS011;43755;49.736;8.734;2023-02-28T09:26:28;5.50;;;4.60;;
11447;SDS011;43755;49.736;8.734;2023-02-28T09:28:29;4.78;;;4.38;;
11447;SDS011;43755;49.736;8.734;2023-02-28T09:30:30;5.72;;;4.30;;
11447;SDS011;43755;49.736;8.734;2023-02-28T09:32:32;5.70;;;4.60;;
11447;SDS011;43755;49.736;8.734;2023-02-28T09:34:33;5.03;;;4.60;;
11447;SDS011;43755;49.736;8.734;2023-02-28T09:36:36;6.10;;;4.50;;
11447;SDS011;43755;49.736;8.734;2023-02-28T09:38:39;5.55;;;5.05;;
11447;SDS011;43755;49.736;8.734;2023-02-28T09:40:45;5.30;;;4.80;;
11447;SDS011;43755;49.736;8.734;2023-02-28T09:42:51;6.03;;;5.22;;
11447;SDS011;43755;49.736;8.734;2023-02-28T09:44:55;5.80;;;5.00;;
11447;SDS011;43755;49.736;8.734;2023-02-28T09:46:58;5.28;;;4.78;;
11447;SDS011;43755;49.736;8.734;2023-02-28T09:49:03;6.18;;;5.00;;
11447;SDS011;43755;49.736;8.734;2023-02-28T09:51:09;9.40;;;5.65;;
11447;SDS011;43755;49.736;8.734;2023-02-28T09:53:19;6.07;;;4.80;;
11447;SDS011;43755;49.736;8.734;2023-02-28T09:55:25;4.95;;;4.50;;
11447;SDS011;43755;49.736;8.734;2023-02-28T09:57:32;5.45;;;4.60;;
11447;SDS011;43755;49.736;8.734;2023-02-28T09:59:42;6.20;;;4.65;;
11447;SDS011;43755;49.736;8.734;2023-02-28T10:01:52;5.13;;;4.60;;
11447;SDS011;43755;49.736;8.734;2023-02-28T10:04:00;6.25;;;5.43;;
11447;SDS011;43755;49.736;8.734;2023-02-28T10:06:11;5.68;;;4.80;;
11447;SDS011;43755;49.736;8.734;2023-02-28T10:08:18;4.75;;;4.35;;
11447;SDS011;43755;49.736;8.734;2023-02-28T10:10:27;8.23;;;5.00;;
11447;SDS011;43755;49.736;8.734;2023-02-28T10:12:33;6.40;;;5.07;;
11447;SDS011;43755;49.736;8.734;2023-02-28T10:14:46;4.85;;;4.35;;
11447;SDS011;43755;49.736;8.734;2023-02-28T10:16:52;6.20;;;4.65;;
11447;SDS011;43755;49.736;8.734;2023-02-28T10:18:57;7.97;;;5.05;;
11447;SDS011;43755;49.736;8.734;2023-02-28T10:21:04;5.55;;;4.85;;
11447;SDS011;43755;49.736;8.734;2023-02-28T10:23:09;5.47;;;4.97;;
11447;SDS011;43755;49.736;8.734;2023-02-28T10:25:17;6.57;;;4.60;;
11447;SDS011;43755;49.736;8.734;2023-02-28T10:27:22;6.95;;;5.20;;
11447;SDS011;43755;49.736;8.734;2023-02-28T10:29:24;5.38;;;4.88;;
11447;SDS011;43755;49.736;8.734;2023-02-28T10:31:25;5.10;;;4.60;;
11447;SDS011;43755;49.736;8.734;2023-02-28T10:33:28;5.57;;;5.07;;
11447;SDS011;43755;49.736;8.734;2023-02-28T10:35:30;7.30;;;4.72;;
11447;SDS011;43755;49.736;8.734;2023-02-28T10:37:33;5.90;;;5.18;;
11447;SDS011;43755;49.736;8.734;2023-02-28T10:39:39;5.28;;;4.78;;
11447;SDS011;43755;49.736;8.734;2023-02-28T10:41:42;5.55;;;5.05;;
11447;SDS011;43755;49.736;8.734;2023-02-28T10:43:45;5.32;;;4.82;;
11447;SDS011;43755;49.736;8.734;2023-02-28T10:45:57;5.97;;;5.38;;
11447;SDS011;43755;49.736;8.734;2023-02-28T10:48:02;10.40;;;5.28;;
11447;SDS011;43755;49.736;8.734;2023-02-28T10:50:06;6.28;;;5.25;;
11447;SDS011;43755;49.736;8.734;2023-02-28T10:52:33;5.65;;;4.80;;
11447;SDS011;43755;49.736;8.734;2023-02-28T10:54:38;5.63;;;5.10;;
11447;SDS011;43755;49.736;8.734;2023-02-28T10:56:40;6.40;;;5.25;;
11447;SDS011;43755;49.736;8.734;2023-02-28T10:58:47;6.65;;;5.10;;
11447;SDS011;43755;49.736;8.734;2023-02-28T11:00:51;5.95;;;5.00;;
11447;SDS011;43755;49.736;8.734;2023-02-28T11:02:53;5.55;;;5.05;;
11447;SDS011;43755;49.736;8.734;2023-02-28T11:04:54;5.30;;;4.47;;
11447;SDS011;43755;49.736;8.734;2023-02-28T11:06:56;5.38;;;4.88;;
11447;SDS011;43755;49.736;8.734;2023-02-28T11:08:59;5.78;;;5.20;;
11447;SDS011;43755;49.736;8.734;2023-02-28T11:11:03;6.05;;;5.45;;
11447;SDS011;43755;49.736;8.734;2023-02-28T11:13:12;5.70;;;5.20;;
11447;SDS011;43755;49.736;8.734;2023-02-28T11:15:22;5.72;;;5.03;;
11447;SDS011;43755;49.736;8.734;2023-02-28T11:17:26;5.95;;;5.38;;
11447;SDS011;43755;49.736;8.734;2023-02-28T11:19:33;5.35;;;4.88;;
11447;SDS011;43755;49.736;8.734;2023-02-28T11:21:41;5.88;;;5.28;;
11447;SDS011;43755;49.736;8.734;2023-02-28T11:23:54;5.28;;;4.78;;
11447;SDS011;43755;49.736;8.734;2023-02-28T11:26:02;5.70;;;5.20;;
11447;SDS011;43755;49.736;8.734;2023-02-28T11:28:23;6.28;;;5.13;;
11447;SDS011;43755;49.736;8.734;2023-02-28T11:30:30;5.65;;;5.15;;
11447;SDS011;43755;49.736;8.734;2023-02-28T11:32:34;5.95;;;5.03;;
11447;SDS011;43755;49.736;8.734;2023-02-28T11:34:36;6.00;;;5.40;;
11447;SDS011;43755;49.736;8.734;2023-02-28T11:36:38;5.10;;;4.60;;
11447;SDS011;43755;49.736;8.734;2023-02-28T11:38:44;5.57;;;5.07;;
11447;SDS011;43755;49.736;8.734;2023-02-28T11:40:46;6.43;;;5.82;;
11447;SDS011;43755;49.736;8.734;2023-02-28T11:42:55;6.22;;;5.50;;
11447;SDS011;43755;49.736;8.734;2023-02-28T11:45:07;6.03;;;4.90;;
11447;SDS011;43755;49.736;8.734;2023-02-28T11:47:23;5.95;;;5.45;;
11447;SDS011;43755;49.736;8.734;2023-02-28T11:49:34;6.70;;;5.07;;
11447;SDS011;43755;49.736;8.734;2023-02-28T11:51:42;6.00;;;5.40;;
11447;SDS011;43755;49.736;8.734;2023-02-28T11:53:53;6.35;;;5.57;;
11447;SDS011;43755;49.736;8.734;2023-02-28T11:56:06;6.97;;;5.60;;
11447;SDS011;43755;49.736;8.734;2023-02-28T11:58:17;6.68;;;5.38;;
11447;SDS011;43755;49.736;8.734;2023-02-28T12:00:31;6.43;;;5.20;;
11447;SDS011;43755;49.736;8.734;2023-02-28T12:02:48;5.85;;;5.35;;
11447;SDS011;43755;49.736;8.734;2023-02-28T12:05:08;7.28;;;5.55;;
11447;SDS011;43755;49.736;8.734;2023-02-28T12:07:23;6.43;;;5.25;;
11447;SDS011;43755;49.736;8.734;2023-02-28T12:09:35;6.07;;;5.47;;
11447;SDS011;43755;49.736;8.734;2023-02-28T12:11:48;6.32;;;5.72;;
11447;SDS011;43755;49.736;8.734;2023-02-28T12:13:57;7.30;;;6.15;;
11447;SDS011;43755;49.736;8.734;2023-02-28T12:16:12;7.00;;;5.97;;
11447;SDS011;43755;49.736;8.734;2023-02-28T12:18:38;7.30;;;5.45;;
11447;SDS011;43755;49.736;8.734;2023-02-28T12:20:53;7.57;;;5.72;;
11447;SDS011;43755;49.736;8.734;2023-02-28T12:23:08;7.55;;;5.05;;
11447;SDS011;43755;49.736;8.734;2023-02-28T12:25:34;5.30;;;4.80;;
11447;SDS011;43755;49.736;8.734;2023-02-28T12:27:45;6.03;;;5.43;;
11447;SDS011;43755;49.736;8.734;2023-02-28T12:29:49;6.85;;;5.30;;
11447;SDS011;43755;49.736;8.734;2023-02-28T12:31:55;5.88;;;5.18;;